createdAt,value
2022-11-23T00:01:32.958Z,99591.88
2022-11-23T00:04:05.192Z,99590.72
2022-11-23T00:06:32.882Z,99593.31
2022-11-23T00:09:00.350Z,99593.94
2022-11-23T00:11:28.434Z,99585.97
2022-11-23T00:13:56.300Z,99591.06
2022-11-23T00:16:27.060Z,99590.00
2022-11-23T00:18:59.761Z,99583.38
2022-11-23T00:21:29.563Z,99591.31
2022-11-23T00:23:56.568Z,99584.97
2022-11-23T00:26:23.653Z,99573.56
2022-11-23T00:28:50.600Z,99582.28
2022-11-23T00:31:20.405Z,99576.25
2022-11-23T00:33:52.280Z,99567.22
2022-11-23T00:36:20.082Z,99583.19
2022-11-23T00:38:48.191Z,99586.66
2022-11-23T00:41:19.396Z,99569.91
2022-11-23T00:43:47.729Z,99572.22
2022-11-23T00:46:28.569Z,99574.50
2022-11-23T00:48:57.494Z,99576.44
2022-11-23T00:51:32.020Z,99581.22
2022-11-23T00:54:00.518Z,99569.44
2022-11-23T00:56:29.351Z,99567.50
2022-11-23T00:58:58.424Z,99569.72
2022-11-23T01:01:29.287Z,99571.25
2022-11-23T01:03:58.787Z,99576.72
2022-11-23T01:06:28.967Z,99578.06
2022-11-23T01:09:06.558Z,99569.53
2022-11-23T01:11:34.181Z,99570.16
2022-11-23T01:14:01.293Z,99577.53
2022-11-23T01:16:34.891Z,99571.69
2022-11-23T01:19:08.782Z,99567.13
2022-11-23T01:21:37.148Z,99566.25
2022-11-23T01:24:16.235Z,99567.13
2022-11-23T01:26:44.303Z,99572.50
2022-11-23T01:29:12.320Z,99564.09
2022-11-23T01:31:46.203Z,99572.31
2022-11-23T01:34:14.904Z,99577.78
2022-11-23T01:36:43.395Z,99560.75
2022-11-23T01:39:12.259Z,99560.16
2022-11-23T01:41:43.750Z,99560.66
2022-11-23T01:44:31.442Z,99562.19
2022-11-23T01:47:02.005Z,99564.84
2022-11-23T01:49:52.137Z,99563.63
2022-11-23T01:52:25.095Z,99561.38
2022-11-23T01:54:58.094Z,99559.44
2022-11-23T01:57:42.052Z,99560.31
2022-11-23T02:00:09.870Z,99558.25
2022-11-23T02:02:38.845Z,99561.72
2022-11-23T02:05:06.519Z,99566.78
2022-11-23T02:07:34.623Z,99552.84
2022-11-23T02:10:02.110Z,99557.97
2022-11-23T02:12:29.000Z,99559.97
2022-11-23T02:14:56.227Z,99552.97
2022-11-23T02:17:23.200Z,99564.25
2022-11-23T02:20:12.066Z,99560.38
2022-11-23T02:23:00.542Z,99563.91
2022-11-23T02:25:45.464Z,99572.25
2022-11-23T02:28:26.832Z,99568.09
2022-11-23T02:30:55.495Z,99580.66
2022-11-23T02:33:22.642Z,99586.03
2022-11-23T02:35:58.430Z,99587.56
2022-11-23T02:38:31.722Z,99598.97
2022-11-23T02:40:58.959Z,99600.22
2022-11-23T02:43:26.245Z,99596.88
2022-11-23T02:46:01.991Z,99613.66
2022-11-23T02:48:28.932Z,99615.34
2022-11-23T02:50:55.914Z,99610.50
2022-11-23T02:53:23.214Z,99625.84
2022-11-23T02:55:50.150Z,99607.84
2022-11-23T02:58:17.097Z,99605.22
2022-11-23T03:00:44.081Z,99602.97
2022-11-23T03:03:11.126Z,99613.66
2022-11-23T03:05:38.484Z,99607.91
2022-11-23T03:08:06.022Z,99606.03
2022-11-23T03:10:32.983Z,99606.31
2022-11-23T03:12:59.901Z,99611.84
2022-11-23T03:15:26.890Z,99613.91
2022-11-23T03:17:53.847Z,99618.94
2022-11-23T03:20:21.050Z,99617.69
2022-11-23T03:22:47.982Z,99615.50
2022-11-23T03:25:15.329Z,99609.34
2022-11-23T03:27:42.360Z,99610.50
2022-11-23T03:30:10.344Z,99618.75
2022-11-23T03:32:37.804Z,99621.28
2022-11-23T03:35:06.177Z,99615.78
2022-11-23T03:37:33.450Z,99610.38
2022-11-23T03:40:00.393Z,99608.03
2022-11-23T03:42:27.329Z,99606.47
2022-11-23T03:44:54.279Z,99601.72
2022-11-23T03:47:21.330Z,99605.91
2022-11-23T03:49:48.500Z,99604.50
2022-11-23T03:52:15.420Z,99605.69
2022-11-23T03:54:42.354Z,99604.31
2022-11-23T03:57:09.278Z,99605.00
2022-11-23T03:59:36.251Z,99613.09
2022-11-23T04:02:03.217Z,99602.53
2022-11-23T04:04:30.154Z,99606.97
2022-11-23T04:06:57.109Z,99606.00
2022-11-23T04:09:24.116Z,99614.28
2022-11-23T04:11:51.075Z,99599.56
2022-11-23T04:14:18.168Z,99617.34
2022-11-23T04:16:45.219Z,99607.63
2022-11-23T04:19:12.154Z,99614.44
2022-11-23T04:21:39.164Z,99610.84
2022-11-23T04:24:06.610Z,99620.09
2022-11-23T04:26:33.578Z,99613.56
2022-11-23T04:29:00.497Z,99613.56
2022-11-23T04:31:27.426Z,99618.75
2022-11-23T04:33:57.192Z,99605.84
2022-11-23T04:36:24.628Z,99615.66
2022-11-23T04:38:51.550Z,99616.06
2022-11-23T04:41:18.623Z,99621.00
2022-11-23T04:43:48.732Z,99622.97
2022-11-23T04:46:16.075Z,99628.16
2022-11-23T04:48:42.997Z,99626.44
2022-11-23T04:51:10.479Z,99617.09
2022-11-23T04:53:37.510Z,99617.81
2022-11-23T04:56:04.616Z,99610.25
2022-11-23T04:58:34.496Z,99610.69
2022-11-23T05:01:01.740Z,99608.00
2022-11-23T05:03:28.730Z,99615.97
2022-11-23T05:05:59.150Z,99605.16
2022-11-23T05:08:26.089Z,99606.09
2022-11-23T05:10:52.972Z,99602.38
2022-11-23T05:13:20.112Z,99612.00
2022-11-23T05:15:47.060Z,99610.25
2022-11-23T05:18:14.033Z,99614.59
2022-11-23T05:20:41.059Z,99609.31
2022-11-23T05:23:08.258Z,99603.09
2022-11-23T05:25:35.185Z,99604.59
2022-11-23T05:28:16.715Z,99604.44
2022-11-23T05:30:49.111Z,99601.44
2022-11-23T05:33:16.069Z,99605.13
2022-11-23T05:35:43.329Z,99617.41
2022-11-23T05:38:10.257Z,99622.44
2022-11-23T05:40:37.313Z,99628.00
2022-11-23T05:43:04.363Z,99621.97
2022-11-23T05:45:31.371Z,99610.19
2022-11-23T05:47:59.522Z,99617.38
2022-11-23T05:50:28.181Z,99618.28
2022-11-23T05:53:00.128Z,99620.66
2022-11-23T05:55:27.567Z,99616.19
2022-11-23T05:57:54.830Z,99628.06
2022-11-23T06:00:22.086Z,99610.41
2022-11-23T06:02:49.060Z,99622.09
2022-11-23T06:05:16.128Z,99619.94
2022-11-23T06:07:43.149Z,99628.09
2022-11-23T06:10:12.147Z,99632.41
2022-11-23T06:12:39.046Z,99624.19
2022-11-23T06:15:06.927Z,99625.50
2022-11-23T06:17:33.853Z,99628.59
2022-11-23T06:20:00.759Z,99622.66
2022-11-23T06:22:27.713Z,99618.06
2022-11-23T06:24:54.601Z,99619.13
2022-11-23T06:27:21.500Z,99621.22
2022-11-23T06:29:48.441Z,99621.44
2022-11-23T06:32:15.934Z,99626.88
2022-11-23T06:34:42.869Z,99623.53
2022-11-23T06:37:10.106Z,99631.41
2022-11-23T06:39:37.118Z,99635.44
2022-11-23T06:42:30.969Z,99629.75
2022-11-23T06:44:51.095Z,99635.16
2022-11-23T06:47:21.904Z,99632.19
2022-11-23T06:49:52.561Z,99635.09
2022-11-23T06:52:19.516Z,99643.00
2022-11-23T06:54:46.928Z,99643.16
2022-11-23T06:57:13.908Z,99651.53
2022-11-23T06:59:44.713Z,99658.97
2022-11-23T07:02:12.891Z,99648.91
2022-11-23T07:04:39.827Z,99648.91
2022-11-23T07:07:09.920Z,99651.94
2022-11-23T07:09:36.951Z,99653.41
2022-11-23T07:12:04.108Z,99657.81
2022-11-23T07:14:30.995Z,99665.88
2022-11-23T07:16:57.943Z,99670.50
2022-11-23T07:19:24.840Z,99676.28
2022-11-23T07:21:51.788Z,99667.22
2022-11-23T07:24:18.692Z,99666.50
2022-11-23T07:26:45.645Z,99668.03
2022-11-23T07:29:12.604Z,99643.84
2022-11-23T07:31:39.561Z,99659.44
2022-11-23T07:34:06.558Z,99664.63
2022-11-23T07:36:33.496Z,99664.34
2022-11-23T07:39:00.444Z,99666.09
2022-11-23T07:41:27.646Z,99669.69
2022-11-23T07:43:54.671Z,99665.50
2022-11-23T07:46:22.236Z,99674.47
2022-11-23T07:48:49.150Z,99662.63
2022-11-23T07:51:16.690Z,99663.53
2022-11-23T07:53:43.604Z,99663.72
2022-11-23T07:56:10.479Z,99667.81
2022-11-23T07:58:37.515Z,99659.81
2022-11-23T08:01:04.582Z,99671.00
2022-11-23T08:03:31.571Z,99666.72
2022-11-23T08:05:58.603Z,99670.69
2022-11-23T08:08:25.665Z,99675.41
2022-11-23T08:10:54.256Z,99669.19
2022-11-23T08:13:22.625Z,99674.97
2022-11-23T08:15:54.891Z,99676.06
2022-11-23T08:18:24.114Z,99672.50
2022-11-23T08:20:51.098Z,99668.00
2022-11-23T08:23:18.317Z,99672.84
2022-11-23T08:25:45.525Z,99676.66
2022-11-23T08:28:12.877Z,99677.44
2022-11-23T08:30:40.147Z,99670.06
2022-11-23T08:33:08.654Z,99677.28
2022-11-23T08:35:37.842Z,99686.69
2022-11-23T08:38:06.440Z,99690.19
2022-11-23T08:40:34.165Z,99686.50
2022-11-23T08:43:01.134Z,99682.63
2022-11-23T08:45:28.296Z,99676.00
2022-11-23T08:47:59.668Z,99681.59
2022-11-23T08:50:26.591Z,99675.81
2022-11-23T08:52:58.737Z,99680.53
2022-11-23T08:55:27.498Z,99685.50
2022-11-23T08:58:00.686Z,99683.78
2022-11-23T09:00:28.843Z,99685.28
2022-11-23T09:02:59.903Z,99690.19
2022-11-23T09:05:28.849Z,99694.78
2022-11-23T09:07:59.831Z,99689.38
2022-11-23T09:10:27.220Z,99696.16
2022-11-23T09:12:54.207Z,99671.31
2022-11-23T09:15:21.438Z,99681.63
2022-11-23T09:17:48.427Z,99682.09
2022-11-23T09:20:15.683Z,99687.09
2022-11-23T09:22:42.719Z,99687.97
2022-11-23T09:25:10.445Z,99682.19
2022-11-23T09:27:37.430Z,99687.38
2022-11-23T09:30:05.608Z,99689.56
2022-11-23T09:32:33.089Z,99687.06
2022-11-23T09:35:00.024Z,99679.59
2022-11-23T09:37:27.026Z,99692.56
2022-11-23T09:39:53.926Z,99690.94
2022-11-23T09:42:45.214Z,99692.69
2022-11-23T09:45:26.022Z,99692.56
2022-11-23T09:48:40.945Z,99685.25
2022-11-23T09:51:20.670Z,99684.78
2022-11-23T09:54:04.720Z,99679.09
2022-11-23T09:56:35.237Z,99676.56
2022-11-23T09:59:21.077Z,99682.97
2022-11-23T10:01:48.099Z,99667.47
2022-11-23T10:04:20.295Z,99663.59
2022-11-23T10:07:00.126Z,99663.50
2022-11-23T10:10:09.397Z,99663.66
2022-11-23T10:13:09.633Z,99655.34
2022-11-23T10:15:59.691Z,99659.03
2022-11-23T10:18:58.627Z,99659.25
2022-11-23T10:22:02.288Z,99665.47
2022-11-23T10:24:37.647Z,99668.22
2022-11-23T10:27:16.919Z,99668.41
2022-11-23T10:29:44.274Z,99665.59
2022-11-23T10:32:42.260Z,99665.03
2022-11-23T10:35:29.546Z,99672.97
2022-11-23T10:38:19.304Z,99671.22
2022-11-23T10:41:13.743Z,99665.16
2022-11-23T10:44:09.318Z,99664.81
2022-11-23T10:46:37.290Z,99652.75
2022-11-23T10:49:22.121Z,99659.03
2022-11-23T10:52:03.520Z,99653.72
2022-11-23T10:54:45.306Z,99649.66
2022-11-23T10:57:43.307Z,99631.03
2022-11-23T11:00:13.269Z,99636.59
2022-11-23T11:02:55.476Z,99637.00
2022-11-23T11:08:36.595Z,99628.19
2022-11-23T11:11:25.513Z,99634.59
2022-11-23T11:14:02.425Z,99627.72
2022-11-23T11:16:33.909Z,99612.06
2022-11-23T11:19:31.431Z,99615.53
2022-11-23T11:22:00.657Z,99623.50
2022-11-23T11:24:43.378Z,99618.97
2022-11-23T11:27:18.129Z,99611.59
2022-11-23T11:29:44.943Z,99612.22
2022-11-23T11:32:26.835Z,99613.25
2022-11-23T11:35:38.984Z,99620.88
2022-11-23T11:38:33.154Z,99628.06
2022-11-23T11:41:08.427Z,99617.97
2022-11-23T11:43:45.738Z,99621.72
2022-11-23T11:46:30.368Z,99610.78
2022-11-23T11:49:19.083Z,99614.00
2022-11-23T11:52:19.132Z,99630.03
2022-11-23T11:54:56.634Z,99611.06
2022-11-23T11:57:42.312Z,99614.53
2022-11-23T12:00:20.860Z,99634.16
2022-11-23T12:03:42.992Z,99614.16
2022-11-23T12:06:36.352Z,99625.81
2022-11-23T12:09:12.999Z,99635.81
2022-11-23T12:11:39.996Z,99628.84
2022-11-23T12:14:12.067Z,99622.34
2022-11-23T12:20:25.003Z,99634.47
2022-11-23T12:23:07.092Z,99629.66
2022-11-23T12:26:19.606Z,99629.53
2022-11-23T12:29:25.184Z,99639.34
2022-11-23T12:32:55.298Z,99632.00
2022-11-23T12:39:47.237Z,99628.00
2022-11-23T12:42:54.985Z,99622.22
2022-11-23T12:45:42.848Z,99613.72
2022-11-23T12:48:28.432Z,99618.56
2022-11-23T12:51:16.626Z,99622.06
2022-11-23T12:54:01.370Z,99621.81
2022-11-23T12:56:47.124Z,99622.13
2022-11-23T12:59:15.230Z,99625.28
2022-11-23T13:01:57.366Z,99617.19
2022-11-23T13:05:06.131Z,99617.88
2022-11-23T13:08:03.171Z,99618.59
2022-11-23T13:11:00.204Z,99609.34
2022-11-23T13:14:11.712Z,99614.59
2022-11-23T13:17:14.807Z,99610.28
2022-11-23T13:20:20.992Z,99611.72
2022-11-23T13:22:49.239Z,99609.81
2022-11-23T13:25:29.656Z,99604.69
2022-11-23T13:28:01.367Z,99606.06
2022-11-23T13:31:07.287Z,99601.94
2022-11-23T13:33:37.419Z,99601.16
2022-11-23T13:36:10.397Z,99592.16
2022-11-23T13:38:41.608Z,99595.84
2022-11-23T13:41:39.716Z,99609.25
2022-11-23T13:44:32.021Z,99613.31
2022-11-23T13:47:19.083Z,99606.44
2022-11-23T13:49:47.246Z,99620.81
2022-11-23T13:52:23.320Z,99627.59
2022-11-23T13:55:22.662Z,99637.31
2022-11-23T13:58:23.637Z,99631.84
2022-11-23T14:00:59.052Z,99630.44
2022-11-23T14:03:48.501Z,99626.94
2022-11-23T14:06:46.102Z,99628.06
2022-11-23T14:09:32.727Z,99632.13
2022-11-23T14:12:14.763Z,99628.59
2022-11-23T14:15:15.957Z,99634.44
2022-11-23T14:18:25.319Z,99633.34
2022-11-23T14:21:03.378Z,99635.56
2022-11-23T14:24:16.415Z,99636.16
2022-11-23T14:27:45.710Z,99631.19
2022-11-23T14:30:45.881Z,99626.91
2022-11-23T14:33:29.385Z,99636.75
2022-11-23T14:36:18.209Z,99634.16
2022-11-23T14:39:08.070Z,99632.19
2022-11-23T14:41:41.178Z,99639.34
2022-11-23T14:44:14.788Z,99627.56
2022-11-23T14:47:04.032Z,99640.75
2022-11-23T14:49:31.056Z,99639.03
2022-11-23T14:51:59.576Z,99628.44
2022-11-23T14:54:27.881Z,99635.84
2022-11-23T14:57:00.685Z,99648.22
2022-11-23T14:59:39.796Z,99655.41
2022-11-23T15:02:22.030Z,99653.06
2022-11-23T15:05:07.256Z,99667.72
2022-11-23T15:08:00.168Z,99663.34
2022-11-23T15:10:46.088Z,99669.63
2022-11-23T15:13:29.171Z,99667.59
2022-11-23T15:15:58.721Z,99673.69
2022-11-23T15:18:39.171Z,99682.47
2022-11-23T15:21:26.598Z,99682.22
2022-11-23T15:23:58.529Z,99675.22
2022-11-23T15:29:38.508Z,99666.75
2022-11-23T15:32:32.164Z,99668.91
2022-11-23T15:35:06.831Z,99657.63
2022-11-23T15:37:48.475Z,99656.44
2022-11-23T15:40:18.779Z,99664.13
2022-11-23T15:42:50.988Z,99657.34
2022-11-23T15:46:05.052Z,99658.13
2022-11-23T15:48:35.630Z,99656.53
2022-11-23T15:51:09.069Z,99657.44
2022-11-23T15:53:51.760Z,99662.94
2022-11-23T15:56:33.524Z,99656.94
2022-11-23T15:59:04.987Z,99667.44
2022-11-23T16:01:32.143Z,99655.53
2022-11-23T16:04:03.908Z,99655.44
2022-11-23T16:06:48.261Z,99662.41
2022-11-23T16:09:52.739Z,99670.41
2022-11-23T16:12:27.204Z,99671.34
2022-11-23T16:14:57.172Z,99673.09
2022-11-23T16:17:28.109Z,99679.31
2022-11-23T16:19:58.243Z,99684.38
2022-11-23T16:22:30.250Z,99683.19
2022-11-23T16:25:26.581Z,99680.59
2022-11-23T16:28:25.763Z,99682.41
2022-11-23T16:30:52.798Z,99683.09
2022-11-23T16:33:20.833Z,99677.44
2022-11-23T16:35:48.197Z,99683.78
2022-11-23T16:38:15.217Z,99686.59
2022-11-23T16:40:44.053Z,99691.50
2022-11-23T16:43:12.865Z,99678.78
2022-11-23T16:45:42.604Z,99679.50
2022-11-23T16:48:25.268Z,99679.19
2022-11-23T16:50:57.455Z,99679.19
2022-11-23T16:53:30.180Z,99685.88
2022-11-23T16:55:58.520Z,99673.91
2022-11-23T16:58:29.520Z,99675.94
2022-11-23T17:00:56.523Z,99664.81
2022-11-23T17:03:24.442Z,99672.09
2022-11-23T17:05:52.513Z,99675.41
2022-11-23T17:08:23.660Z,99679.91
2022-11-23T17:10:51.651Z,99679.09
2022-11-23T17:13:29.372Z,99679.78
2022-11-23T17:15:56.490Z,99671.69
2022-11-23T17:18:23.417Z,99677.88
2022-11-23T17:20:50.373Z,99679.25
2022-11-23T17:23:17.330Z,99681.34
2022-11-23T17:25:44.326Z,99671.28
2022-11-23T17:28:17.095Z,99673.25
2022-11-23T17:30:44.178Z,99681.09
2022-11-23T17:33:12.180Z,99679.75
2022-11-23T17:35:40.244Z,99673.47
2022-11-23T17:38:12.247Z,99677.66
2022-11-23T17:40:39.295Z,99682.44
2022-11-23T17:43:06.236Z,99685.44
2022-11-23T17:45:34.024Z,99673.66
2022-11-23T17:48:03.596Z,99673.59
2022-11-23T17:50:30.790Z,99678.38
2022-11-23T17:52:57.768Z,99673.66
2022-11-23T17:55:24.926Z,99686.44
2022-11-23T17:57:51.930Z,99682.06
2022-11-23T18:00:22.423Z,99680.09
2022-11-23T18:02:49.684Z,99686.94
2022-11-23T18:05:21.595Z,99688.81
2022-11-23T18:07:50.472Z,99694.31
2022-11-23T18:10:18.275Z,99692.34
2022-11-23T18:12:46.584Z,99687.88
2022-11-23T18:15:14.316Z,99698.63
2022-11-23T18:17:41.793Z,99699.44
2022-11-23T18:20:10.238Z,99685.44
2022-11-23T18:22:37.407Z,99686.06
2022-11-23T18:25:04.690Z,99682.22
2022-11-23T18:27:31.920Z,99680.09
2022-11-23T18:29:58.837Z,99687.78
2022-11-23T18:32:25.791Z,99684.16
2022-11-23T18:34:52.959Z,99674.03
2022-11-23T18:37:19.929Z,99672.56
2022-11-23T18:39:46.887Z,99677.59
2022-11-23T18:42:14.345Z,99688.75
2022-11-23T18:44:43.513Z,99675.75
2022-11-23T18:47:10.509Z,99682.22
2022-11-23T18:49:37.462Z,99680.66
2022-11-23T18:52:04.556Z,99684.34
2022-11-23T18:54:31.564Z,99680.56
2022-11-23T18:56:58.475Z,99684.94
2022-11-23T18:59:56.301Z,99667.44
2022-11-23T19:02:13.241Z,99674.28
2022-11-23T19:04:40.321Z,99682.69
2022-11-23T19:07:07.619Z,99679.09
2022-11-23T19:09:35.139Z,99676.88
2022-11-23T19:12:02.576Z,99666.28
2022-11-23T19:14:29.490Z,99666.66
2022-11-23T19:16:56.452Z,99672.94
2022-11-23T19:19:23.354Z,99664.03
2022-11-23T19:21:50.337Z,99648.50
2022-11-23T19:24:17.293Z,99662.88
2022-11-23T19:26:44.212Z,99660.31
2022-11-23T19:29:11.638Z,99671.31
2022-11-23T19:31:38.643Z,99666.34
2022-11-23T19:34:06.422Z,99676.38
2022-11-23T19:36:36.571Z,99673.72
2022-11-23T19:39:08.360Z,99681.28
2022-11-23T19:41:35.280Z,99685.84
2022-11-23T19:44:02.455Z,99680.75
2022-11-23T19:46:31.177Z,99670.75
2022-11-23T19:48:58.732Z,99680.19
2022-11-23T19:51:27.463Z,99680.59
2022-11-23T19:53:57.615Z,99681.13
2022-11-23T19:56:28.895Z,99682.44
2022-11-23T19:58:59.376Z,99683.97
2022-11-23T20:01:31.781Z,99674.09
2022-11-23T20:04:08.319Z,99675.00
2022-11-23T20:06:39.238Z,99685.09
2022-11-23T20:09:09.416Z,99702.78
2022-11-23T20:11:38.965Z,99690.28
2022-11-23T20:14:06.273Z,99692.13
2022-11-23T20:16:33.498Z,99695.56
2022-11-23T20:19:06.435Z,99686.59
2022-11-23T20:21:34.708Z,99693.59
2022-11-23T20:24:13.825Z,99696.31
2022-11-23T20:26:42.347Z,99706.22
2022-11-23T20:29:10.080Z,99712.59
2022-11-23T20:31:38.172Z,99701.72
2022-11-23T20:34:08.133Z,99700.34
2022-11-23T20:36:37.607Z,99701.44
2022-11-23T20:39:09.723Z,99699.66
2022-11-23T20:41:37.722Z,99702.03
2022-11-23T20:44:12.690Z,99699.41
2022-11-23T20:49:27.315Z,99697.47
2022-11-23T20:51:54.269Z,99700.91
2022-11-23T20:54:21.262Z,99712.38
2022-11-23T20:56:51.236Z,99706.53
2022-11-23T20:59:19.746Z,99717.94
2022-11-23T21:01:46.927Z,99713.47
2022-11-23T21:04:13.904Z,99714.09
2022-11-23T21:06:41.045Z,99711.16
2022-11-23T21:09:10.265Z,99693.81
2022-11-23T21:11:56.112Z,99691.19
2022-11-23T21:14:27.413Z,99701.28
2022-11-23T21:17:01.228Z,99715.25
2022-11-23T21:19:34.595Z,99713.72
2022-11-23T21:22:08.930Z,99723.63
2022-11-23T21:24:36.677Z,99725.66
2022-11-23T21:27:11.958Z,99723.72
2022-11-23T21:29:38.916Z,99708.81
2022-11-23T21:32:06.089Z,99702.66
2022-11-23T21:34:33.759Z,99706.50
2022-11-23T21:37:01.260Z,99714.72
2022-11-23T21:39:31.449Z,99705.28
2022-11-23T21:41:58.837Z,99703.47
2022-11-23T21:44:26.460Z,99698.69
2022-11-23T21:46:53.608Z,99702.78
2022-11-23T21:49:20.769Z,99707.66
2022-11-23T21:51:48.140Z,99715.66
2022-11-23T21:54:15.992Z,99700.38
2022-11-23T21:56:45.296Z,99702.38
2022-11-23T21:59:13.262Z,99712.81
2022-11-23T22:01:40.999Z,99717.00
2022-11-23T22:04:15.376Z,99725.13
2022-11-23T22:06:45.454Z,99724.53
2022-11-23T22:09:13.391Z,99725.25
2022-11-23T22:11:43.267Z,99730.03
2022-11-23T22:14:16.524Z,99728.56
2022-11-23T22:16:54.431Z,99715.66
2022-11-23T22:19:21.539Z,99715.31
2022-11-23T22:21:48.667Z,99727.78
2022-11-23T22:24:19.077Z,99724.66
2022-11-23T22:26:47.788Z,99730.53
2022-11-23T22:29:15.429Z,99718.94
2022-11-23T22:31:43.905Z,99717.94
2022-11-23T22:34:13.571Z,99717.06
2022-11-23T22:36:41.185Z,99714.56
2022-11-23T22:39:08.625Z,99718.81
2022-11-23T22:41:37.211Z,99707.56
2022-11-23T22:44:07.849Z,99727.75
2022-11-23T22:46:35.840Z,99709.94
2022-11-23T22:49:03.162Z,99726.50
2022-11-23T22:51:30.407Z,99723.59
2022-11-23T22:53:59.647Z,99724.91
2022-11-23T22:56:28.883Z,99721.91
2022-11-23T22:58:56.212Z,99718.03
2022-11-23T23:01:27.564Z,99724.53
2022-11-23T23:03:56.898Z,99719.22
2022-11-23T23:06:28.590Z,99718.13
2022-11-23T23:08:58.694Z,99717.59
2022-11-23T23:11:28.519Z,99733.28
2022-11-23T23:13:56.622Z,99722.56
2022-11-23T23:16:24.025Z,99727.84
2022-11-23T23:18:51.661Z,99734.09
2022-11-23T23:21:21.780Z,99730.50
2022-11-23T23:23:51.887Z,99719.91
2022-11-23T23:26:22.965Z,99721.28
2022-11-23T23:28:54.557Z,99715.84
2022-11-23T23:31:22.592Z,99708.13
2022-11-23T23:33:49.848Z,99721.16
2022-11-23T23:36:19.944Z,99718.94
2022-11-23T23:38:47.164Z,99724.69
2022-11-23T23:41:14.958Z,99714.00
2022-11-23T23:43:43.538Z,99710.16
2022-11-23T23:46:13.763Z,99716.22
2022-11-23T23:48:41.913Z,99726.38
2022-11-23T23:51:16.101Z,99717.09
2022-11-23T23:53:44.122Z,99714.44
2022-11-23T23:56:18.695Z,99715.31
2022-11-23T23:58:46.099Z,99717.56
